Terminal Aerodrome Forecast
Issued by NWS

Home | Current Version | Previous Version | Text Only | Print | Product List | Glossary On
Versions: 1 2 3 4 5 6 7 8 9 10 11 12 13 14 15 16 17 18 19 20 21 22 23 24 25 26 27 28 29 30 31
000
FTUS42 KCAE 190500 RRA
TAFCUB
TAF
KCUB 190542Z 1906/2006 00000KT P6SM OVC006
     FM190800 10005KT 4SM BR VCSH OVC006
     FM191400 13006KT 2SM SHRA SCT006 OVC010
     FM192100 18009G16KT 5SM -SHRA BR BKN025 OVC040
     FM200300 21006KT P6SM OVC007=

USA.gov is the U.S. government's official web portal to all federal, state and local government web resources and services.